RYR159M EDDK-LEPA
Flight info
| Callsign | RYR159M |
|---|---|
| Flight time | 1h 58m |
| Altitude | 35000 |
| Route | EDDK/24 NVO2D NVO Y868 NAVAK Z283 SOPOK DCT ROUSY DCT GTQ DCT POGOL/N0443F370 DCT LASAT DCT MOROK DCT GILIR DCT GEVEA DCT INCUS DCT BALSI DCT RETNO DCT TUPOX DCT MTG DCT DIVKO DCT VATIR DCT PIVUS DCT BODEQ DCT VERSO L129 LUNIK |
| Aircraft | A320/M-SDE3FGHIRWY/LB1 |
Departure
| Time | 2026-04-25 13:41 |
|---|---|
| Airport | Cologne Bonn Airport (EDDK) |
Arrival
| Time | 2026-04-25 15:40 |
|---|---|
| Airport | Palma de Mallorca Airport (LEPA) |
| Time | Latitude | Longitude | Altitude | Speed | Heading |
|---|---|---|---|---|---|
| 2026-04-25 13:08 | 50.87803 | 7.12421 | 232 ft | 0 kts | 288° |
| 2026-04-25 13:31 | 50.87800 | 7.12435 | 232 ft | 4 kts | 289° |
| 2026-04-25 13:31 | 50.87791 | 7.12476 | 233 ft | 4 kts | 289° |
| 2026-04-25 13:32 | 50.87783 | 7.12516 | 232 ft | 4 kts | 279° |
| 2026-04-25 13:32 | 50.87783 | 7.12553 | 232 ft | 4 kts | 226° |
| 2026-04-25 13:32 | 50.87802 | 7.12567 | 236 ft | 4 kts | 197° |
| 2026-04-25 13:32 | 50.87828 | 7.12580 | 233 ft | 4 kts | 198° |
| 2026-04-25 13:33 | 50.87854 | 7.12593 | 232 ft | 4 kts | 198° |
| 2026-04-25 13:33 | 50.87880 | 7.12606 | 234 ft | 4 kts | 198° |
| 2026-04-25 13:33 | 50.87905 | 7.12620 | 233 ft | 4 kts | 200° |
| 2026-04-25 13:33 | 50.87921 | 7.12630 | 236 ft | 2 kts | 204° |
| 2026-04-25 13:34 | 50.87923 | 7.12631 | 235 ft | 0 kts | 204° |
| 2026-04-25 13:35 | 50.87922 | 7.12631 | 235 ft | 1 kts | 204° |
| 2026-04-25 13:35 | 50.87856 | 7.12612 | 234 ft | 15 kts | 173° |
| 2026-04-25 13:36 | 50.87749 | 7.12727 | 232 ft | 22 kts | 137° |
| 2026-04-25 13:36 | 50.87644 | 7.12880 | 232 ft | 20 kts | 137° |
| 2026-04-25 13:36 | 50.87548 | 7.13019 | 232 ft | 18 kts | 138° |
| 2026-04-25 13:36 | 50.87462 | 7.13143 | 232 ft | 16 kts | 137° |
| 2026-04-25 13:37 | 50.87383 | 7.13258 | 232 ft | 15 kts | 138° |
| 2026-04-25 13:37 | 50.87308 | 7.13365 | 232 ft | 14 kts | 137° |
| 2026-04-25 13:37 | 50.87246 | 7.13455 | 234 ft | 10 kts | 137° |
| 2026-04-25 13:37 | 50.87195 | 7.13530 | 238 ft | 15 kts | 137° |
| 2026-04-25 13:38 | 50.87107 | 7.13658 | 240 ft | 16 kts | 138° |
| 2026-04-25 13:38 | 50.87026 | 7.13775 | 243 ft | 19 kts | 137° |
| 2026-04-25 13:38 | 50.86942 | 7.13910 | 248 ft | 15 kts | 124° |
| 2026-04-25 13:38 | 50.86909 | 7.14118 | 255 ft | 20 kts | 100° |
| 2026-04-25 13:39 | 50.86888 | 7.14320 | 258 ft | 16 kts | 99° |
| 2026-04-25 13:39 | 50.86872 | 7.14488 | 260 ft | 19 kts | 96° |
| 2026-04-25 13:39 | 50.86918 | 7.14742 | 264 ft | 25 kts | 64° |
| 2026-04-25 13:39 | 50.86992 | 7.14983 | 270 ft | 23 kts | 64° |
| 2026-04-25 13:40 | 50.87056 | 7.15196 | 275 ft | 19 kts | 64° |
| 2026-04-25 13:40 | 50.87102 | 7.15367 | 280 ft | 15 kts | 85° |
| 2026-04-25 13:40 | 50.87033 | 7.15467 | 278 ft | 14 kts | 155° |
| 2026-04-25 13:40 | 50.86948 | 7.15479 | 281 ft | 13 kts | 230° |
| 2026-04-25 13:41 | 50.86864 | 7.15202 | 274 ft | 57 kts | 243° |
| 2026-04-25 13:41 | 50.86593 | 7.14295 | 261 ft | 122 kts | 245° |
| 2026-04-25 13:41 | 50.86163 | 7.12878 | 447 ft | 151 kts | 246° |
| 2026-04-25 13:41 | 50.85686 | 7.11472 | 1220 ft | 137 kts | 246° |
| 2026-04-25 13:42 | 50.85257 | 7.10095 | 1667 ft | 146 kts | 249° |
| 2026-04-25 13:42 | 50.84793 | 7.08521 | 1800 ft | 172 kts | 250° |
| 2026-04-25 13:42 | 50.84268 | 7.06671 | 1863 ft | 193 kts | 254° |
| 2026-04-25 13:42 | 50.84072 | 7.04484 | 2034 ft | 210 kts | 269° |
| 2026-04-25 13:43 | 50.83978 | 7.02090 | 2379 ft | 220 kts | 268° |
| 2026-04-25 13:43 | 50.83880 | 6.99732 | 3191 ft | 212 kts | 269° |
| 2026-04-25 13:43 | 50.83781 | 6.97373 | 3653 ft | 223 kts | 269° |
| 2026-04-25 13:43 | 50.83677 | 6.94825 | 4113 ft | 240 kts | 269° |
| 2026-04-25 13:44 | 50.83563 | 6.92085 | 4684 ft | 256 kts | 268° |
| 2026-04-25 13:44 | 50.83293 | 6.89273 | 5484 ft | 263 kts | 252° |
| 2026-04-25 13:44 | 50.82342 | 6.86768 | 6324 ft | 271 kts | 233° |
| 2026-04-25 13:44 | 50.81118 | 6.84478 | 7148 ft | 274 kts | 232° |
| 2026-04-25 13:45 | 50.79867 | 6.82178 | 7938 ft | 278 kts | 232° |
| 2026-04-25 13:45 | 50.78597 | 6.79858 | 8756 ft | 281 kts | 232° |
| 2026-04-25 13:45 | 50.77314 | 6.77513 | 9568 ft | 284 kts | 232° |
| 2026-04-25 13:45 | 50.76458 | 6.75943 | 10100 ft | 286 kts | 232° |
| 2026-04-25 13:46 | 50.75143 | 6.73527 | 10618 ft | 299 kts | 232° |
| 2026-04-25 13:46 | 50.73753 | 6.70918 | 10803 ft | 322 kts | 233° |
| 2026-04-25 13:46 | 50.72304 | 6.68093 | 11147 ft | 337 kts | 234° |
| 2026-04-25 13:46 | 50.70345 | 6.64211 | 11994 ft | 344 kts | 234° |
| 2026-04-25 13:47 | 50.69334 | 6.62209 | 12460 ft | 347 kts | 234° |
| 2026-04-25 13:47 | 50.67324 | 6.58245 | 13370 ft | 352 kts | 234° |
| 2026-04-25 13:47 | 50.65781 | 6.55214 | 14023 ft | 356 kts | 234° |
| 2026-04-25 13:47 | 50.64730 | 6.53159 | 14417 ft | 358 kts | 234° |
| 2026-04-25 13:48 | 50.62643 | 6.49088 | 15213 ft | 362 kts | 233° |
| 2026-04-25 13:48 | 50.61568 | 6.46994 | 15621 ft | 365 kts | 233° |
| 2026-04-25 13:48 | 50.59967 | 6.43878 | 16210 ft | 368 kts | 233° |
| 2026-04-25 13:48 | 50.58348 | 6.40736 | 16788 ft | 371 kts | 233° |
| 2026-04-25 13:49 | 50.56716 | 6.37572 | 17381 ft | 374 kts | 233° |
| 2026-04-25 13:49 | 50.55067 | 6.34376 | 17968 ft | 377 kts | 233° |
| 2026-04-25 13:49 | 50.53406 | 6.31159 | 18528 ft | 381 kts | 233° |
| 2026-04-25 13:49 | 50.51729 | 6.27915 | 19027 ft | 384 kts | 233° |
| 2026-04-25 13:50 | 50.50037 | 6.24649 | 19543 ft | 387 kts | 233° |
| 2026-04-25 13:50 | 50.48335 | 6.21365 | 20057 ft | 389 kts | 234° |
| 2026-04-25 13:50 | 50.46617 | 6.18049 | 20510 ft | 393 kts | 233° |
| 2026-04-25 13:50 | 50.44883 | 6.14710 | 21003 ft | 397 kts | 234° |
| 2026-04-25 13:51 | 50.43131 | 6.11344 | 21482 ft | 400 kts | 234° |
| 2026-04-25 13:51 | 50.41364 | 6.07955 | 21978 ft | 403 kts | 234° |
| 2026-04-25 13:51 | 50.39584 | 6.04546 | 22465 ft | 406 kts | 234° |
| 2026-04-25 13:51 | 50.37788 | 6.01112 | 22942 ft | 408 kts | 234° |
| 2026-04-25 13:52 | 50.36009 | 5.97707 | 23400 ft | 411 kts | 235° |
| 2026-04-25 13:52 | 50.34097 | 5.94352 | 23833 ft | 418 kts | 226° |
| 2026-04-25 13:52 | 50.31648 | 5.91809 | 24205 ft | 430 kts | 208° |
| 2026-04-25 13:52 | 50.28746 | 5.90512 | 24578 ft | 441 kts | 189° |
| 2026-04-25 13:53 | 50.25654 | 5.90682 | 24894 ft | 450 kts | 173° |
| 2026-04-25 13:53 | 50.22559 | 5.91511 | 25246 ft | 453 kts | 173° |
| 2026-04-25 13:53 | 50.19451 | 5.92369 | 25613 ft | 454 kts | 173° |
| 2026-04-25 13:53 | 50.16330 | 5.93233 | 25944 ft | 456 kts | 173° |
| 2026-04-25 13:54 | 50.13198 | 5.94094 | 26286 ft | 458 kts | 173° |
| 2026-04-25 13:54 | 50.10009 | 5.94962 | 26641 ft | 460 kts | 173° |
| 2026-04-25 13:54 | 50.06850 | 5.95812 | 26951 ft | 462 kts | 173° |
| 2026-04-25 13:54 | 50.03673 | 5.96661 | 27254 ft | 464 kts | 173° |
| 2026-04-25 13:55 | 50.00525 | 5.97501 | 27559 ft | 467 kts | 173° |
| 2026-04-25 13:55 | 49.97316 | 5.98360 | 27861 ft | 469 kts | 173° |
| 2026-04-25 13:55 | 49.94096 | 5.99223 | 28174 ft | 470 kts | 173° |
| 2026-04-25 13:55 | 49.90868 | 6.00086 | 28478 ft | 472 kts | 173° |
| 2026-04-25 13:56 | 49.87625 | 6.00947 | 28788 ft | 474 kts | 173° |
| 2026-04-25 13:56 | 49.84369 | 6.01810 | 29077 ft | 475 kts | 173° |
| 2026-04-25 13:56 | 49.81107 | 6.02674 | 29343 ft | 477 kts | 173° |
| 2026-04-25 13:56 | 49.77830 | 6.03541 | 29606 ft | 478 kts | 173° |
| 2026-04-25 13:57 | 49.74543 | 6.04408 | 29865 ft | 480 kts | 173° |
| 2026-04-25 13:57 | 49.72318 | 6.04997 | 30039 ft | 481 kts | 173° |
| 2026-04-25 13:57 | 49.67945 | 6.06157 | 30345 ft | 483 kts | 173° |
| 2026-04-25 13:57 | 49.64630 | 6.07037 | 30550 ft | 484 kts | 173° |
| 2026-04-25 13:58 | 49.61316 | 6.07913 | 30808 ft | 483 kts | 173° |
| 2026-04-25 13:58 | 49.58007 | 6.08786 | 31090 ft | 482 kts | 173° |
| 2026-04-25 13:58 | 49.54708 | 6.09653 | 31381 ft | 480 kts | 173° |
| 2026-04-25 13:58 | 49.51432 | 6.10648 | 31671 ft | 481 kts | 167° |
| 2026-04-25 13:59 | 49.48266 | 6.12318 | 31950 ft | 482 kts | 158° |
| 2026-04-25 13:59 | 49.45296 | 6.14703 | 32225 ft | 483 kts | 148° |
| 2026-04-25 13:59 | 49.42586 | 6.17750 | 32501 ft | 483 kts | 141° |
| 2026-04-25 13:59 | 49.39984 | 6.21009 | 32774 ft | 482 kts | 142° |
| 2026-04-25 14:00 | 49.38227 | 6.23194 | 32953 ft | 481 kts | 142° |
| 2026-04-25 14:00 | 49.34776 | 6.27461 | 33334 ft | 480 kts | 142° |
| 2026-04-25 14:00 | 49.32176 | 6.30666 | 33623 ft | 479 kts | 142° |
| 2026-04-25 14:00 | 49.29582 | 6.33860 | 33914 ft | 478 kts | 142° |
| 2026-04-25 14:01 | 49.26991 | 6.37046 | 34202 ft | 477 kts | 142° |
| 2026-04-25 14:01 | 49.24411 | 6.40216 | 34450 ft | 475 kts | 142° |
| 2026-04-25 14:01 | 49.21834 | 6.43380 | 34690 ft | 475 kts | 142° |
| 2026-04-25 14:01 | 49.19258 | 6.46536 | 34915 ft | 474 kts | 142° |
| 2026-04-25 14:02 | 49.16684 | 6.49680 | 35091 ft | 474 kts | 142° |
| 2026-04-25 14:02 | 49.11546 | 6.55940 | 35127 ft | 471 kts | 142° |
| 2026-04-25 14:03 | 49.06429 | 6.62169 | 35150 ft | 470 kts | 142° |
| 2026-04-25 14:03 | 49.01068 | 6.67912 | 35144 ft | 467 kts | 155° |
| 2026-04-25 14:04 | 48.94991 | 6.70946 | 35146 ft | 462 kts | 174° |
| 2026-04-25 14:04 | 48.88569 | 6.71231 | 35143 ft | 458 kts | 184° |
| 2026-04-25 14:05 | 48.82191 | 6.70978 | 35137 ft | 459 kts | 184° |
| 2026-04-25 14:05 | 48.75806 | 6.70733 | 35140 ft | 459 kts | 184° |
| 2026-04-25 14:06 | 48.69462 | 6.70491 | 35135 ft | 459 kts | 184° |
| 2026-04-25 14:06 | 48.63069 | 6.70242 | 35139 ft | 459 kts | 184° |
| 2026-04-25 14:07 | 48.56678 | 6.69985 | 35145 ft | 460 kts | 184° |
| 2026-04-25 14:07 | 48.50279 | 6.69735 | 35148 ft | 460 kts | 184° |
| 2026-04-25 14:08 | 48.43881 | 6.69493 | 35141 ft | 460 kts | 184° |
| 2026-04-25 14:08 | 48.37480 | 6.69251 | 35141 ft | 460 kts | 184° |
| 2026-04-25 14:09 | 48.31079 | 6.69003 | 35142 ft | 460 kts | 184° |
| 2026-04-25 14:09 | 48.24679 | 6.68757 | 35150 ft | 460 kts | 184° |
| 2026-04-25 14:10 | 48.19315 | 6.68548 | 35137 ft | 460 kts | 184° |
| 2026-04-25 14:10 | 48.11834 | 6.68263 | 35141 ft | 460 kts | 184° |
| 2026-04-25 14:11 | 48.05436 | 6.68023 | 35133 ft | 460 kts | 184° |
| 2026-04-25 14:11 | 47.99043 | 6.67787 | 35132 ft | 460 kts | 184° |
| 2026-04-25 14:12 | 47.92650 | 6.67541 | 35130 ft | 460 kts | 184° |
| 2026-04-25 14:12 | 47.86301 | 6.67298 | 35129 ft | 459 kts | 184° |
| 2026-04-25 14:13 | 47.79913 | 6.67053 | 35118 ft | 459 kts | 184° |
| 2026-04-25 14:13 | 47.73528 | 6.66810 | 35115 ft | 459 kts | 184° |
| 2026-04-25 14:14 | 47.67143 | 6.66572 | 35111 ft | 459 kts | 184° |
| 2026-04-25 14:14 | 47.60760 | 6.66335 | 35099 ft | 459 kts | 184° |
| 2026-04-25 14:15 | 47.54374 | 6.66096 | 35102 ft | 459 kts | 185° |
| 2026-04-25 14:15 | 47.47989 | 6.65861 | 35107 ft | 459 kts | 185° |
| 2026-04-25 14:16 | 47.41712 | 6.64726 | 35109 ft | 452 kts | 200° |
| 2026-04-25 14:16 | 47.36106 | 6.60872 | 35108 ft | 442 kts | 218° |
| 2026-04-25 14:17 | 47.31398 | 6.55149 | 35118 ft | 439 kts | 224° |
| 2026-04-25 14:17 | 47.26746 | 6.49320 | 35120 ft | 439 kts | 224° |
| 2026-04-25 14:18 | 47.22081 | 6.43510 | 35118 ft | 439 kts | 224° |
| 2026-04-25 14:18 | 47.17421 | 6.37702 | 35120 ft | 439 kts | 224° |
| 2026-04-25 14:19 | 47.12769 | 6.31912 | 35130 ft | 438 kts | 224° |
| 2026-04-25 14:19 | 47.07917 | 6.26487 | 35131 ft | 442 kts | 212° |
| 2026-04-25 14:20 | 47.02107 | 6.23431 | 35125 ft | 450 kts | 192° |
| 2026-04-25 14:20 | 46.95853 | 6.22516 | 35116 ft | 452 kts | 188° |
| 2026-04-25 14:21 | 46.89595 | 6.21688 | 35120 ft | 452 kts | 188° |
| 2026-04-25 14:21 | 46.83332 | 6.20854 | 35117 ft | 452 kts | 188° |
| 2026-04-25 14:22 | 46.77075 | 6.20020 | 35109 ft | 451 kts | 188° |
| 2026-04-25 14:22 | 46.70818 | 6.19195 | 35116 ft | 451 kts | 188° |
| 2026-04-25 14:23 | 46.64564 | 6.18372 | 35121 ft | 451 kts | 188° |
| 2026-04-25 14:23 | 46.58318 | 6.17545 | 35119 ft | 451 kts | 188° |
| 2026-04-25 14:24 | 46.52074 | 6.16716 | 35116 ft | 450 kts | 188° |
| 2026-04-25 14:24 | 46.45836 | 6.15891 | 35107 ft | 450 kts | 188° |
| 2026-04-25 14:25 | 46.39606 | 6.15072 | 35080 ft | 449 kts | 188° |
| 2026-04-25 14:25 | 46.33377 | 6.14263 | 35083 ft | 449 kts | 188° |
| 2026-04-25 14:26 | 46.27158 | 6.13460 | 35082 ft | 449 kts | 188° |
| 2026-04-25 14:26 | 46.21004 | 6.12460 | 35081 ft | 447 kts | 191° |
| 2026-04-25 14:27 | 46.14869 | 6.11026 | 35079 ft | 446 kts | 193° |
| 2026-04-25 14:27 | 46.08745 | 6.09525 | 35084 ft | 447 kts | 192° |
| 2026-04-25 14:28 | 46.02600 | 6.08129 | 35086 ft | 447 kts | 191° |
| 2026-04-25 14:28 | 45.96446 | 6.06795 | 35078 ft | 447 kts | 191° |
| 2026-04-25 14:29 | 45.90298 | 6.05459 | 35082 ft | 447 kts | 191° |
| 2026-04-25 14:29 | 45.84154 | 6.04110 | 35083 ft | 446 kts | 191° |
| 2026-04-25 14:30 | 45.79053 | 6.02980 | 35076 ft | 446 kts | 191° |
| 2026-04-25 14:30 | 45.69854 | 6.00911 | 35058 ft | 446 kts | 191° |
| 2026-04-25 14:31 | 45.63727 | 5.99536 | 35057 ft | 446 kts | 191° |
| 2026-04-25 14:31 | 45.57598 | 5.98192 | 35064 ft | 445 kts | 191° |
| 2026-04-25 14:32 | 45.51474 | 5.96860 | 35071 ft | 445 kts | 191° |
| 2026-04-25 14:32 | 45.45373 | 5.95457 | 35070 ft | 443 kts | 193° |
| 2026-04-25 14:33 | 45.39348 | 5.93633 | 35071 ft | 442 kts | 195° |
| 2026-04-25 14:33 | 45.33360 | 5.91633 | 35087 ft | 442 kts | 195° |
| 2026-04-25 14:34 | 45.27371 | 5.89689 | 35091 ft | 441 kts | 195° |
| 2026-04-25 14:34 | 45.21370 | 5.87827 | 35085 ft | 441 kts | 194° |
| 2026-04-25 14:35 | 45.15369 | 5.85993 | 35092 ft | 441 kts | 194° |
| 2026-04-25 14:35 | 45.09365 | 5.84147 | 35086 ft | 441 kts | 194° |
| 2026-04-25 14:36 | 45.03367 | 5.82293 | 35077 ft | 441 kts | 194° |
| 2026-04-25 14:36 | 44.97366 | 5.80439 | 35084 ft | 441 kts | 195° |
| 2026-04-25 14:37 | 44.91365 | 5.78592 | 35082 ft | 441 kts | 194° |
| 2026-04-25 14:37 | 44.85368 | 5.76750 | 35084 ft | 441 kts | 194° |
| 2026-04-25 14:38 | 44.79373 | 5.74914 | 35077 ft | 441 kts | 194° |
| 2026-04-25 14:38 | 44.73380 | 5.73086 | 35081 ft | 441 kts | 194° |
| 2026-04-25 14:39 | 44.67392 | 5.71255 | 35079 ft | 440 kts | 194° |
| 2026-04-25 14:39 | 44.61407 | 5.69433 | 35069 ft | 440 kts | 195° |
| 2026-04-25 14:40 | 44.55428 | 5.67625 | 35064 ft | 440 kts | 195° |
| 2026-04-25 14:40 | 44.49443 | 5.65817 | 35065 ft | 440 kts | 194° |
| 2026-04-25 14:41 | 44.43456 | 5.64008 | 35053 ft | 440 kts | 195° |
| 2026-04-25 14:41 | 44.37542 | 5.62065 | 35056 ft | 438 kts | 200° |
| 2026-04-25 14:42 | 44.32791 | 5.59496 | 35061 ft | 437 kts | 205° |
| 2026-04-25 14:42 | 44.26216 | 5.55895 | 35053 ft | 437 kts | 203° |
| 2026-04-25 14:43 | 44.20553 | 5.52798 | 35049 ft | 437 kts | 204° |
| 2026-04-25 14:43 | 44.14889 | 5.49716 | 35049 ft | 437 kts | 204° |
| 2026-04-25 14:44 | 44.09224 | 5.46641 | 35049 ft | 437 kts | 203° |
| 2026-04-25 14:44 | 44.03564 | 5.43559 | 35049 ft | 437 kts | 204° |
| 2026-04-25 14:45 | 43.97903 | 5.40495 | 35046 ft | 437 kts | 203° |
| 2026-04-25 14:45 | 43.92240 | 5.37434 | 35048 ft | 437 kts | 203° |
| 2026-04-25 14:46 | 43.86576 | 5.34371 | 35040 ft | 437 kts | 202° |
| 2026-04-25 14:46 | 43.80911 | 5.31308 | 35039 ft | 438 kts | 203° |
| 2026-04-25 14:47 | 43.76190 | 5.28762 | 35038 ft | 438 kts | 203° |
| 2026-04-25 14:47 | 43.69541 | 5.25188 | 35037 ft | 439 kts | 203° |
| 2026-04-25 14:48 | 43.63842 | 5.22133 | 35042 ft | 439 kts | 203° |
| 2026-04-25 14:48 | 43.58136 | 5.19082 | 35049 ft | 440 kts | 203° |
| 2026-04-25 14:49 | 43.52427 | 5.16036 | 35051 ft | 440 kts | 203° |
| 2026-04-25 14:49 | 43.46716 | 5.12989 | 35059 ft | 440 kts | 203° |
| 2026-04-25 14:50 | 43.41000 | 5.09956 | 35054 ft | 440 kts | 203° |
| 2026-04-25 14:50 | 43.35686 | 5.05900 | 35062 ft | 437 kts | 216° |
| 2026-04-25 14:51 | 43.30682 | 5.01153 | 35068 ft | 437 kts | 216° |
| 2026-04-25 14:51 | 43.25658 | 4.96450 | 35069 ft | 438 kts | 216° |
| 2026-04-25 14:52 | 43.20622 | 4.91742 | 35077 ft | 438 kts | 216° |
| 2026-04-25 14:52 | 43.16444 | 4.87823 | 35080 ft | 438 kts | 216° |
| 2026-04-25 14:53 | 43.10555 | 4.82316 | 35090 ft | 439 kts | 216° |
| 2026-04-25 14:53 | 43.05537 | 4.77667 | 35087 ft | 439 kts | 212° |
| 2026-04-25 14:54 | 43.00203 | 4.73580 | 35089 ft | 440 kts | 210° |
| 2026-04-25 14:54 | 42.94852 | 4.69531 | 35097 ft | 440 kts | 211° |
| 2026-04-25 14:55 | 42.89497 | 4.65483 | 35103 ft | 440 kts | 210° |
| 2026-04-25 14:55 | 42.84148 | 4.61437 | 35101 ft | 440 kts | 211° |
| 2026-04-25 14:56 | 42.78794 | 4.57401 | 35106 ft | 439 kts | 211° |
| 2026-04-25 14:56 | 42.73444 | 4.53373 | 35106 ft | 439 kts | 210° |
| 2026-04-25 14:57 | 42.68096 | 4.49355 | 35109 ft | 439 kts | 210° |
| 2026-04-25 14:57 | 42.62743 | 4.45347 | 35107 ft | 439 kts | 210° |
| 2026-04-25 14:58 | 42.57385 | 4.41342 | 35117 ft | 440 kts | 211° |
| 2026-04-25 14:58 | 42.52025 | 4.37349 | 35111 ft | 439 kts | 210° |
| 2026-04-25 14:59 | 42.46668 | 4.33360 | 35109 ft | 439 kts | 211° |
| 2026-04-25 14:59 | 42.41314 | 4.29373 | 35111 ft | 439 kts | 211° |
| 2026-04-25 15:00 | 42.36861 | 4.26066 | 35112 ft | 439 kts | 210° |
| 2026-04-25 15:00 | 42.30597 | 4.21430 | 35105 ft | 439 kts | 210° |
| 2026-04-25 15:01 | 42.25237 | 4.17470 | 35111 ft | 439 kts | 209° |
| 2026-04-25 15:01 | 42.19879 | 4.13525 | 35123 ft | 439 kts | 210° |
| 2026-04-25 15:02 | 42.14517 | 4.09593 | 35118 ft | 438 kts | 210° |
| 2026-04-25 15:02 | 42.09165 | 4.05647 | 35119 ft | 438 kts | 210° |
| 2026-04-25 15:03 | 42.03820 | 4.01694 | 35118 ft | 439 kts | 210° |
| 2026-04-25 15:03 | 41.98458 | 3.97763 | 35116 ft | 439 kts | 210° |
| 2026-04-25 15:04 | 41.93025 | 3.94026 | 35115 ft | 440 kts | 202° |
| 2026-04-25 15:04 | 41.87063 | 3.92103 | 35124 ft | 442 kts | 191° |
| 2026-04-25 15:05 | 41.81000 | 3.90720 | 35117 ft | 442 kts | 191° |
| 2026-04-25 15:06 | 41.71907 | 3.88653 | 35129 ft | 442 kts | 191° |
| 2026-04-25 15:06 | 41.65842 | 3.87262 | 35124 ft | 442 kts | 191° |
| 2026-04-25 15:07 | 41.59778 | 3.85865 | 35130 ft | 442 kts | 191° |
| 2026-04-25 15:07 | 41.53714 | 3.84467 | 35136 ft | 442 kts | 191° |
| 2026-04-25 15:08 | 41.47651 | 3.83077 | 35128 ft | 442 kts | 191° |
| 2026-04-25 15:08 | 41.41583 | 3.81686 | 35127 ft | 442 kts | 190° |
| 2026-04-25 15:09 | 41.35511 | 3.80300 | 35132 ft | 443 kts | 191° |
| 2026-04-25 15:09 | 41.26402 | 3.78231 | 35138 ft | 443 kts | 190° |
| 2026-04-25 15:10 | 41.20332 | 3.76846 | 35149 ft | 443 kts | 191° |
| 2026-04-25 15:11 | 41.11456 | 3.73718 | 35146 ft | 441 kts | 202° |
| 2026-04-25 15:11 | 41.05744 | 3.70763 | 35144 ft | 441 kts | 201° |
| 2026-04-25 15:12 | 40.97208 | 3.66381 | 35141 ft | 441 kts | 202° |
| 2026-04-25 15:12 | 40.93383 | 3.64418 | 35128 ft | 441 kts | 202° |
| 2026-04-25 15:13 | 40.88600 | 3.61967 | 32867 ft | 454 kts | 201° |
| 2026-04-25 15:13 | 40.82604 | 3.58902 | 31202 ft | 455 kts | 201° |
| 2026-04-25 15:13 | 40.79675 | 3.57402 | 30706 ft | 449 kts | 201° |
| 2026-04-25 15:14 | 40.76785 | 3.55923 | 30217 ft | 442 kts | 201° |
| 2026-04-25 15:14 | 40.73933 | 3.54465 | 29659 ft | 437 kts | 201° |
| 2026-04-25 15:14 | 40.71109 | 3.53027 | 29103 ft | 433 kts | 201° |
| 2026-04-25 15:14 | 40.68314 | 3.51607 | 28561 ft | 429 kts | 201° |
| 2026-04-25 15:15 | 40.67373 | 3.51130 | 28376 ft | 428 kts | 201° |
| 2026-04-25 15:15 | 40.62788 | 3.48801 | 27508 ft | 423 kts | 201° |
| 2026-04-25 15:15 | 40.60976 | 3.47882 | 27164 ft | 420 kts | 201° |
| 2026-04-25 15:15 | 40.58259 | 3.46507 | 26626 ft | 417 kts | 201° |
| 2026-04-25 15:16 | 40.55559 | 3.45141 | 26101 ft | 414 kts | 201° |
| 2026-04-25 15:16 | 40.52877 | 3.43779 | 25587 ft | 412 kts | 201° |
| 2026-04-25 15:16 | 40.47569 | 3.41081 | 24588 ft | 407 kts | 201° |
| 2026-04-25 15:17 | 40.42105 | 3.39433 | 23616 ft | 403 kts | 181° |
| 2026-04-25 15:17 | 40.39318 | 3.39523 | 23110 ft | 399 kts | 176° |
| 2026-04-25 15:17 | 40.36559 | 3.39695 | 22644 ft | 395 kts | 176° |
| 2026-04-25 15:18 | 40.33827 | 3.39852 | 22188 ft | 391 kts | 176° |
| 2026-04-25 15:18 | 40.28427 | 3.40149 | 21263 ft | 386 kts | 176° |
| 2026-04-25 15:18 | 40.25755 | 3.40296 | 20797 ft | 384 kts | 176° |
| 2026-04-25 15:19 | 40.23089 | 3.40445 | 20300 ft | 383 kts | 176° |
| 2026-04-25 15:19 | 40.21331 | 3.40544 | 19984 ft | 382 kts | 176° |
| 2026-04-25 15:19 | 40.17789 | 3.40742 | 19343 ft | 380 kts | 177° |
| 2026-04-25 15:19 | 40.15143 | 3.40890 | 18759 ft | 382 kts | 176° |
| 2026-04-25 15:20 | 40.12485 | 3.41039 | 18144 ft | 384 kts | 176° |
| 2026-04-25 15:20 | 40.09815 | 3.41189 | 17595 ft | 382 kts | 176° |
| 2026-04-25 15:20 | 40.07188 | 3.41335 | 17331 ft | 373 kts | 176° |
| 2026-04-25 15:20 | 40.04623 | 3.41481 | 17068 ft | 365 kts | 176° |
| 2026-04-25 15:21 | 40.02116 | 3.41624 | 16808 ft | 357 kts | 176° |
| 2026-04-25 15:21 | 39.99658 | 3.41757 | 16553 ft | 350 kts | 176° |
| 2026-04-25 15:21 | 39.97250 | 3.41882 | 16306 ft | 343 kts | 176° |
| 2026-04-25 15:21 | 39.94884 | 3.42014 | 16056 ft | 337 kts | 176° |
| 2026-04-25 15:22 | 39.92561 | 3.42151 | 15796 ft | 331 kts | 176° |
| 2026-04-25 15:22 | 39.90275 | 3.42288 | 15560 ft | 326 kts | 176° |
| 2026-04-25 15:22 | 39.88026 | 3.42419 | 15315 ft | 321 kts | 176° |
| 2026-04-25 15:22 | 39.85811 | 3.42546 | 15076 ft | 316 kts | 176° |
| 2026-04-25 15:23 | 39.83629 | 3.42671 | 14843 ft | 312 kts | 176° |
| 2026-04-25 15:23 | 39.81504 | 3.42790 | 14804 ft | 299 kts | 176° |
| 2026-04-25 15:23 | 39.79464 | 3.42901 | 14774 ft | 287 kts | 176° |
| 2026-04-25 15:23 | 39.77508 | 3.43006 | 14750 ft | 275 kts | 176° |
| 2026-04-25 15:24 | 39.75642 | 3.43110 | 14722 ft | 261 kts | 175° |
| 2026-04-25 15:24 | 39.73874 | 3.43223 | 14697 ft | 248 kts | 175° |
| 2026-04-25 15:24 | 39.72187 | 3.43331 | 14615 ft | 240 kts | 175° |
| 2026-04-25 15:24 | 39.71092 | 3.43398 | 14446 ft | 236 kts | 175° |
| 2026-04-25 15:25 | 39.68915 | 3.43530 | 14188 ft | 233 kts | 175° |
| 2026-04-25 15:25 | 39.67297 | 3.43625 | 13941 ft | 231 kts | 175° |
| 2026-04-25 15:25 | 39.65693 | 3.43717 | 13673 ft | 231 kts | 175° |
| 2026-04-25 15:25 | 39.64087 | 3.43811 | 13330 ft | 229 kts | 175° |
| 2026-04-25 15:26 | 39.62499 | 3.43900 | 13020 ft | 228 kts | 175° |
| 2026-04-25 15:26 | 39.60920 | 3.43991 | 12703 ft | 226 kts | 175° |
| 2026-04-25 15:26 | 39.59352 | 3.44088 | 12408 ft | 225 kts | 175° |
| 2026-04-25 15:26 | 39.57794 | 3.44182 | 12117 ft | 224 kts | 175° |
| 2026-04-25 15:27 | 39.56243 | 3.44275 | 11806 ft | 223 kts | 175° |
| 2026-04-25 15:27 | 39.54698 | 3.44360 | 11510 ft | 222 kts | 175° |
| 2026-04-25 15:27 | 39.51641 | 3.44242 | 10900 ft | 220 kts | 201° |
| 2026-04-25 15:28 | 39.50460 | 3.43045 | 10615 ft | 218 kts | 237° |
| 2026-04-25 15:28 | 39.50025 | 3.41203 | 10334 ft | 216 kts | 272° |
| 2026-04-25 15:28 | 39.50484 | 3.39406 | 10050 ft | 212 kts | 308° |
| 2026-04-25 15:28 | 39.51522 | 3.38065 | 9753 ft | 212 kts | 321° |
| 2026-04-25 15:29 | 39.52653 | 3.36845 | 9444 ft | 211 kts | 322° |
| 2026-04-25 15:29 | 39.53791 | 3.35648 | 9130 ft | 210 kts | 322° |
| 2026-04-25 15:29 | 39.54903 | 3.34466 | 8831 ft | 209 kts | 322° |
| 2026-04-25 15:29 | 39.56020 | 3.33262 | 8521 ft | 209 kts | 322° |
| 2026-04-25 15:30 | 39.57154 | 3.32048 | 8222 ft | 208 kts | 322° |
| 2026-04-25 15:30 | 39.58272 | 3.30863 | 7924 ft | 207 kts | 323° |
| 2026-04-25 15:30 | 39.59372 | 3.29691 | 7631 ft | 207 kts | 322° |
| 2026-04-25 15:30 | 39.60497 | 3.28497 | 7336 ft | 206 kts | 322° |
| 2026-04-25 15:31 | 39.61601 | 3.27328 | 7148 ft | 204 kts | 323° |
| 2026-04-25 15:31 | 39.62706 | 3.26161 | 7095 ft | 206 kts | 323° |
| 2026-04-25 15:31 | 39.63815 | 3.24973 | 6877 ft | 206 kts | 322° |
| 2026-04-25 15:31 | 39.64923 | 3.23798 | 6634 ft | 206 kts | 323° |
| 2026-04-25 15:32 | 39.65908 | 3.22461 | 6378 ft | 207 kts | 298° |
| 2026-04-25 15:32 | 39.66313 | 3.20671 | 6128 ft | 208 kts | 280° |
| 2026-04-25 15:32 | 39.66522 | 3.18832 | 6025 ft | 206 kts | 278° |
| 2026-04-25 15:33 | 39.66882 | 3.15126 | 6026 ft | 206 kts | 277° |
| 2026-04-25 15:33 | 39.67059 | 3.13288 | 6028 ft | 205 kts | 277° |
| 2026-04-25 15:33 | 39.67236 | 3.11443 | 6031 ft | 208 kts | 277° |
| 2026-04-25 15:33 | 39.67419 | 3.09564 | 5715 ft | 209 kts | 277° |
| 2026-04-25 15:34 | 39.67601 | 3.07704 | 5371 ft | 206 kts | 277° |
| 2026-04-25 15:34 | 39.67780 | 3.05882 | 5026 ft | 202 kts | 277° |
| 2026-04-25 15:34 | 39.67947 | 3.04067 | 4671 ft | 201 kts | 272° |
| 2026-04-25 15:34 | 39.67871 | 3.02877 | 4590 ft | 200 kts | 257° |
| 2026-04-25 15:35 | 39.66366 | 2.99178 | 4011 ft | 198 kts | 238° |
| 2026-04-25 15:35 | 39.65652 | 2.97655 | 3792 ft | 197 kts | 239° |
| 2026-04-25 15:35 | 39.64943 | 2.96146 | 3538 ft | 195 kts | 239° |
| 2026-04-25 15:36 | 39.63541 | 2.93159 | 3023 ft | 191 kts | 238° |
| 2026-04-25 15:36 | 39.62856 | 2.91700 | 2774 ft | 188 kts | 238° |
| 2026-04-25 15:36 | 39.62183 | 2.90266 | 2519 ft | 183 kts | 236° |
| 2026-04-25 15:37 | 39.61528 | 2.88875 | 2261 ft | 179 kts | 237° |
| 2026-04-25 15:37 | 39.60890 | 2.87518 | 2029 ft | 172 kts | 237° |
| 2026-04-25 15:37 | 39.60274 | 2.86209 | 1799 ft | 169 kts | 236° |
| 2026-04-25 15:37 | 39.59666 | 2.84918 | 1569 ft | 167 kts | 234° |
| 2026-04-25 15:38 | 39.59062 | 2.83635 | 1350 ft | 166 kts | 235° |
| 2026-04-25 15:38 | 39.58456 | 2.82352 | 1129 ft | 165 kts | 237° |
| 2026-04-25 15:38 | 39.57891 | 2.81149 | 940 ft | 150 kts | 236° |
| 2026-04-25 15:38 | 39.57364 | 2.80032 | 740 ft | 143 kts | 237° |
| 2026-04-25 15:39 | 39.56856 | 2.78955 | 556 ft | 138 kts | 238° |
| 2026-04-25 15:39 | 39.56358 | 2.77903 | 373 ft | 136 kts | 238° |
| 2026-04-25 15:39 | 39.55871 | 2.76865 | 196 ft | 134 kts | 238° |
| 2026-04-25 15:39 | 39.55388 | 2.75842 | 40 ft | 129 kts | 239° |
| 2026-04-25 15:40 | 39.54992 | 2.75002 | 30 ft | 85 kts | 238° |
| 2026-04-25 15:40 | 39.54902 | 2.74809 | 30 ft | 69 kts | 238° |
| 2026-04-25 15:40 | 39.54586 | 2.74130 | 30 ft | 35 kts | 244° |
| 2026-04-25 15:40 | 39.54552 | 2.73867 | 30 ft | 24 kts | 269° |
| 2026-04-25 15:41 | 39.54552 | 2.73757 | 30 ft | 0 kts | 270° |
| 2026-04-25 15:41 | 39.54553 | 2.73746 | 30 ft | 5 kts | 271° |
| 2026-04-25 15:41 | 39.54554 | 2.73725 | 30 ft | 0 kts | 275° |
| 2026-04-25 15:41 | 39.54579 | 2.73701 | 30 ft | 11 kts | 1° |
| 2026-04-25 15:42 | 39.54639 | 2.73805 | 30 ft | 18 kts | 58° |
| 2026-04-25 15:42 | 39.54694 | 2.73922 | 30 ft | 14 kts | 58° |
| 2026-04-25 15:42 | 39.54774 | 2.73943 | 30 ft | 12 kts | 0° |
| 2026-04-25 15:42 | 39.54831 | 2.74001 | 30 ft | 10 kts | 17° |
| 2026-04-25 15:43 | 39.54900 | 2.73963 | 30 ft | 12 kts | 329° |
| 2026-04-25 15:43 | 39.54970 | 2.73907 | 30 ft | 11 kts | 329° |
| 2026-04-25 15:43 | 39.55032 | 2.73858 | 30 ft | 12 kts | 328° |
| 2026-04-25 15:43 | 39.55116 | 2.73791 | 30 ft | 15 kts | 328° |
| 2026-04-25 15:44 | 39.55183 | 2.73698 | 30 ft | 15 kts | 261° |
| 2026-04-25 15:44 | 39.55124 | 2.73575 | 30 ft | 17 kts | 238° |
| 2026-04-25 15:44 | 39.55071 | 2.73479 | 30 ft | 9 kts | 205° |
| 2026-04-25 15:44 | 39.55033 | 2.73489 | 30 ft | 3 kts | 162° |
| 2026-04-25 15:45 | 39.55027 | 2.73492 | 30 ft | 0 kts | 163° |
| 2026-04-25 15:45 | 39.55026 | 2.73492 | 30 ft | 0 kts | 163° |